sensor_id;sensor_type;location;lat;lon;timestamp;P1;durP1;ratioP1;P2;durP2;ratioP2
31262;SDS011;17892;52.080;9.006;2023-04-09T00:02:09;12.25;;;6.43;;
31262;SDS011;17892;52.080;9.006;2023-04-09T00:04:35;14.63;;;7.45;;
31262;SDS011;17892;52.080;9.006;2023-04-09T00:07:00;13.93;;;6.47;;
31262;SDS011;17892;52.080;9.006;2023-04-09T00:09:26;15.10;;;7.78;;
31262;SDS011;17892;52.080;9.006;2023-04-09T00:11:52;11.93;;;6.38;;
31262;SDS011;17892;52.080;9.006;2023-04-09T00:14:17;14.05;;;7.70;;
31262;SDS011;17892;52.080;9.006;2023-04-09T00:16:43;15.15;;;7.60;;
31262;SDS011;17892;52.080;9.006;2023-04-09T00:19:09;18.65;;;9.02;;
31262;SDS011;17892;52.080;9.006;2023-04-09T00:21:35;14.90;;;8.00;;
31262;SDS011;17892;52.080;9.006;2023-04-09T00:24:01;15.57;;;7.57;;
31262;SDS011;17892;52.080;9.006;2023-04-09T00:26:27;17.05;;;8.10;;
31262;SDS011;17892;52.080;9.006;2023-04-09T00:28:53;15.63;;;8.27;;
31262;SDS011;17892;52.080;9.006;2023-04-09T00:31:19;14.48;;;6.75;;
31262;SDS011;17892;52.080;9.006;2023-04-09T00:33:45;17.42;;;8.15;;
31262;SDS011;17892;52.080;9.006;2023-04-09T00:36:10;13.02;;;6.97;;
31262;SDS011;17892;52.080;9.006;2023-04-09T00:38:36;14.50;;;6.55;;
31262;SDS011;17892;52.080;9.006;2023-04-09T00:41:02;15.32;;;7.40;;
31262;SDS011;17892;52.080;9.006;2023-04-09T00:43:27;17.63;;;8.60;;
31262;SDS011;17892;52.080;9.006;2023-04-09T00:45:53;16.38;;;7.55;;
31262;SDS011;17892;52.080;9.006;2023-04-09T00:48:19;17.48;;;7.72;;
31262;SDS011;17892;52.080;9.006;2023-04-09T00:50:45;14.77;;;6.80;;
31262;SDS011;17892;52.080;9.006;2023-04-09T00:53:11;12.85;;;6.72;;
31262;SDS011;17892;52.080;9.006;2023-04-09T00:55:39;14.38;;;6.93;;
31262;SDS011;17892;52.080;9.006;2023-04-09T00:58:05;13.60;;;6.95;;
31262;SDS011;17892;52.080;9.006;2023-04-09T01:00:31;16.55;;;8.60;;
31262;SDS011;17892;52.080;9.006;2023-04-09T01:02:57;17.92;;;8.70;;
31262;SDS011;17892;52.080;9.006;2023-04-09T01:05:25;13.82;;;7.53;;
31262;SDS011;17892;52.080;9.006;2023-04-09T01:08:05;14.02;;;7.50;;
31262;SDS011;17892;52.080;9.006;2023-04-09T01:10:37;11.90;;;6.32;;
31262;SDS011;17892;52.080;9.006;2023-04-09T01:15:51;12.88;;;6.35;;
31262;SDS011;17892;52.080;9.006;2023-04-09T01:18:22;13.35;;;6.75;;
31262;SDS011;17892;52.080;9.006;2023-04-09T01:23:28;13.80;;;7.32;;
31262;SDS011;17892;52.080;9.006;2023-04-09T01:29:24;12.27;;;6.60;;
31262;SDS011;17892;52.080;9.006;2023-04-09T01:31:51;18.10;;;8.77;;
31262;SDS011;17892;52.080;9.006;2023-04-09T01:34:18;13.77;;;7.70;;
31262;SDS011;17892;52.080;9.006;2023-04-09T01:36:47;19.02;;;8.65;;
31262;SDS011;17892;52.080;9.006;2023-04-09T01:39:18;18.98;;;9.48;;
31262;SDS011;17892;52.080;9.006;2023-04-09T01:41:44;18.55;;;10.25;;
31262;SDS011;17892;52.080;9.006;2023-04-09T01:44:12;18.58;;;8.52;;
31262;SDS011;17892;52.080;9.006;2023-04-09T01:46:38;23.73;;;11.20;;
31262;SDS011;17892;52.080;9.006;2023-04-09T01:49:05;21.27;;;9.85;;
31262;SDS011;17892;52.080;9.006;2023-04-09T01:51:31;27.45;;;13.77;;
31262;SDS011;17892;52.080;9.006;2023-04-09T01:53:58;28.17;;;13.05;;
31262;SDS011;17892;52.080;9.006;2023-04-09T01:56:24;41.00;;;18.65;;
31262;SDS011;17892;52.080;9.006;2023-04-09T01:58:51;36.53;;;16.55;;
31262;SDS011;17892;52.080;9.006;2023-04-09T02:01:21;41.88;;;17.52;;
31262;SDS011;17892;52.080;9.006;2023-04-09T02:03:57;42.67;;;20.17;;
31262;SDS011;17892;52.080;9.006;2023-04-09T02:06:51;40.75;;;17.85;;
31262;SDS011;17892;52.080;9.006;2023-04-09T02:11:53;27.38;;;12.95;;
31262;SDS011;17892;52.080;9.006;2023-04-09T02:14:24;35.13;;;16.33;;
31262;SDS011;17892;52.080;9.006;2023-04-09T02:16:51;39.95;;;18.25;;
31262;SDS011;17892;52.080;9.006;2023-04-09T02:19:17;39.65;;;18.65;;
31262;SDS011;17892;52.080;9.006;2023-04-09T02:21:43;38.35;;;16.02;;
31262;SDS011;17892;52.080;9.006;2023-04-09T02:24:09;39.63;;;18.05;;
31262;SDS011;17892;52.080;9.006;2023-04-09T02:26:35;40.70;;;19.80;;
31262;SDS011;17892;52.080;9.006;2023-04-09T02:29:01;39.53;;;17.67;;
31262;SDS011;17892;52.080;9.006;2023-04-09T02:31:26;33.90;;;16.00;;
31262;SDS011;17892;52.080;9.006;2023-04-09T02:33:53;27.80;;;13.75;;
31262;SDS011;17892;52.080;9.006;2023-04-09T02:36:19;24.42;;;12.40;;
31262;SDS011;17892;52.080;9.006;2023-04-09T02:38:44;22.25;;;11.18;;
31262;SDS011;17892;52.080;9.006;2023-04-09T02:41:10;22.58;;;10.75;;
31262;SDS011;17892;52.080;9.006;2023-04-09T02:43:36;19.15;;;9.98;;
31262;SDS011;17892;52.080;9.006;2023-04-09T02:46:02;18.17;;;9.52;;
31262;SDS011;17892;52.080;9.006;2023-04-09T02:48:28;18.75;;;9.98;;
31262;SDS011;17892;52.080;9.006;2023-04-09T02:50:53;19.38;;;9.85;;
31262;SDS011;17892;52.080;9.006;2023-04-09T02:53:19;18.58;;;10.27;;
31262;SDS011;17892;52.080;9.006;2023-04-09T02:55:47;18.17;;;9.45;;
31262;SDS011;17892;52.080;9.006;2023-04-09T02:58:13;19.60;;;9.77;;
31262;SDS011;17892;52.080;9.006;2023-04-09T03:00:39;17.65;;;8.55;;
31262;SDS011;17892;52.080;9.006;2023-04-09T03:03:05;17.58;;;8.45;;
31262;SDS011;17892;52.080;9.006;2023-04-09T03:05:31;17.80;;;8.73;;
31262;SDS011;17892;52.080;9.006;2023-04-09T03:07:56;20.77;;;11.27;;
31262;SDS011;17892;52.080;9.006;2023-04-09T03:10:22;18.13;;;9.85;;
31262;SDS011;17892;52.080;9.006;2023-04-09T03:12:47;15.32;;;8.70;;
31262;SDS011;17892;52.080;9.006;2023-04-09T03:15:13;19.75;;;9.55;;
31262;SDS011;17892;52.080;9.006;2023-04-09T03:17:39;19.40;;;9.57;;
31262;SDS011;17892;52.080;9.006;2023-04-09T03:20:05;18.17;;;8.30;;
31262;SDS011;17892;52.080;9.006;2023-04-09T03:22:35;14.23;;;7.65;;
31262;SDS011;17892;52.080;9.006;2023-04-09T03:25:01;18.02;;;8.98;;
31262;SDS011;17892;52.080;9.006;2023-04-09T03:27:28;17.27;;;8.88;;
31262;SDS011;17892;52.080;9.006;2023-04-09T03:29:56;17.33;;;8.98;;
31262;SDS011;17892;52.080;9.006;2023-04-09T03:32:22;15.95;;;8.02;;
31262;SDS011;17892;52.080;9.006;2023-04-09T03:34:47;15.95;;;7.95;;
31262;SDS011;17892;52.080;9.006;2023-04-09T03:37:13;17.08;;;8.70;;
31262;SDS011;17892;52.080;9.006;2023-04-09T03:39:39;17.15;;;8.25;;
31262;SDS011;17892;52.080;9.006;2023-04-09T03:42:05;18.02;;;8.68;;
31262;SDS011;17892;52.080;9.006;2023-04-09T03:44:31;18.50;;;8.63;;
31262;SDS011;17892;52.080;9.006;2023-04-09T03:46:56;18.27;;;9.57;;
31262;SDS011;17892;52.080;9.006;2023-04-09T03:49:22;17.67;;;8.95;;
31262;SDS011;17892;52.080;9.006;2023-04-09T03:51:48;16.27;;;9.02;;
31262;SDS011;17892;52.080;9.006;2023-04-09T03:54:13;18.60;;;9.50;;
31262;SDS011;17892;52.080;9.006;2023-04-09T03:56:39;20.88;;;8.55;;
31262;SDS011;17892;52.080;9.006;2023-04-09T03:59:05;16.27;;;8.82;;
31262;SDS011;17892;52.080;9.006;2023-04-09T04:01:31;17.10;;;8.18;;
31262;SDS011;17892;52.080;9.006;2023-04-09T04:03:56;24.95;;;10.15;;
31262;SDS011;17892;52.080;9.006;2023-04-09T04:06:22;22.20;;;9.50;;
31262;SDS011;17892;52.080;9.006;2023-04-09T04:08:48;23.45;;;8.65;;
31262;SDS011;17892;52.080;9.006;2023-04-09T04:11:13;17.38;;;8.32;;
31262;SDS011;17892;52.080;9.006;2023-04-09T04:13:39;19.55;;;9.82;;
31262;SDS011;17892;52.080;9.006;2023-04-09T04:16:05;13.48;;;7.25;;
31262;SDS011;17892;52.080;9.006;2023-04-09T04:18:33;18.88;;;8.48;;
31262;SDS011;17892;52.080;9.006;2023-04-09T04:20:59;19.50;;;9.35;;
31262;SDS011;17892;52.080;9.006;2023-04-09T04:23:25;18.45;;;9.77;;
31262;SDS011;17892;52.080;9.006;2023-04-09T04:25:50;20.17;;;8.85;;
31262;SDS011;17892;52.080;9.006;2023-04-09T04:28:17;22.67;;;9.38;;
31262;SDS011;17892;52.080;9.006;2023-04-09T04:30:43;12.32;;;7.25;;
31262;SDS011;17892;52.080;9.006;2023-04-09T04:33:08;21.17;;;8.63;;
31262;SDS011;17892;52.080;9.006;2023-04-09T04:35:34;15.32;;;7.47;;
31262;SDS011;17892;52.080;9.006;2023-04-09T04:38:00;17.90;;;8.70;;
31262;SDS011;17892;52.080;9.006;2023-04-09T04:40:26;17.77;;;10.25;;
31262;SDS011;17892;52.080;9.006;2023-04-09T04:42:52;15.85;;;8.82;;
31262;SDS011;17892;52.080;9.006;2023-04-09T04:45:17;16.75;;;9.55;;
31262;SDS011;17892;52.080;9.006;2023-04-09T04:47:43;17.55;;;8.38;;
31262;SDS011;17892;52.080;9.006;2023-04-09T04:50:09;13.93;;;8.07;;
31262;SDS011;17892;52.080;9.006;2023-04-09T04:52:35;13.13;;;7.32;;
31262;SDS011;17892;52.080;9.006;2023-04-09T04:55:01;12.18;;;6.78;;
31262;SDS011;17892;52.080;9.006;2023-04-09T04:57:26;16.13;;;8.45;;
31262;SDS011;17892;52.080;9.006;2023-04-09T04:59:52;13.45;;;7.35;;
31262;SDS011;17892;52.080;9.006;2023-04-09T05:02:18;12.95;;;7.55;;
31262;SDS011;17892;52.080;9.006;2023-04-09T05:04:43;14.68;;;7.43;;
31262;SDS011;17892;52.080;9.006;2023-04-09T05:07:09;11.48;;;6.55;;
31262;SDS011;17892;52.080;9.006;2023-04-09T05:09:35;14.25;;;7.35;;
31262;SDS011;17892;52.080;9.006;2023-04-09T05:12:01;11.25;;;6.80;;
31262;SDS011;17892;52.080;9.006;2023-04-09T05:14:27;12.25;;;7.38;;
31262;SDS011;17892;52.080;9.006;2023-04-09T05:16:53;13.35;;;7.80;;
31262;SDS011;17892;52.080;9.006;2023-04-09T05:19:18;14.65;;;7.95;;
31262;SDS011;17892;52.080;9.006;2023-04-09T05:21:44;11.82;;;6.75;;
31262;SDS011;17892;52.080;9.006;2023-04-09T05:24:10;13.57;;;7.95;;
31262;SDS011;17892;52.080;9.006;2023-04-09T05:26:35;14.15;;;8.50;;
31262;SDS011;17892;52.080;9.006;2023-04-09T05:29:01;12.00;;;6.90;;
31262;SDS011;17892;52.080;9.006;2023-04-09T05:31:27;13.70;;;8.20;;
31262;SDS011;17892;52.080;9.006;2023-04-09T05:33:52;12.20;;;6.90;;
31262;SDS011;17892;52.080;9.006;2023-04-09T05:36:18;9.95;;;6.28;;
31262;SDS011;17892;52.080;9.006;2023-04-09T05:38:47;12.60;;;7.35;;
31262;SDS011;17892;52.080;9.006;2023-04-09T05:41:13;14.40;;;7.93;;
31262;SDS011;17892;52.080;9.006;2023-04-09T05:43:39;12.82;;;7.45;;
31262;SDS011;17892;52.080;9.006;2023-04-09T05:46:06;12.07;;;7.28;;
31262;SDS011;17892;52.080;9.006;2023-04-09T05:48:35;14.35;;;7.80;;
31262;SDS011;17892;52.080;9.006;2023-04-09T05:51:01;13.77;;;7.45;;
31262;SDS011;17892;52.080;9.006;2023-04-09T05:53:27;13.80;;;7.97;;
31262;SDS011;17892;52.080;9.006;2023-04-09T05:55:53;13.25;;;7.80;;
31262;SDS011;17892;52.080;9.006;2023-04-09T05:58:19;17.95;;;9.32;;
31262;SDS011;17892;52.080;9.006;2023-04-09T06:00:45;14.55;;;8.85;;
31262;SDS011;17892;52.080;9.006;2023-04-09T06:03:10;15.63;;;8.52;;
31262;SDS011;17892;52.080;9.006;2023-04-09T06:05:36;10.93;;;7.13;;
31262;SDS011;17892;52.080;9.006;2023-04-09T06:08:02;12.43;;;7.15;;
31262;SDS011;17892;52.080;9.006;2023-04-09T06:10:27;12.35;;;7.30;;
31262;SDS011;17892;52.080;9.006;2023-04-09T06:12:53;11.98;;;7.05;;
31262;SDS011;17892;52.080;9.006;2023-04-09T06:15:19;11.32;;;6.40;;
31262;SDS011;17892;52.080;9.006;2023-04-09T06:17:45;12.48;;;7.65;;
31262;SDS011;17892;52.080;9.006;2023-04-09T06:20:10;10.45;;;6.15;;
31262;SDS011;17892;52.080;9.006;2023-04-09T06:22:36;12.07;;;7.88;;
31262;SDS011;17892;52.080;9.006;2023-04-09T06:25:02;11.38;;;6.93;;
31262;SDS011;17892;52.080;9.006;2023-04-09T06:27:28;10.48;;;6.45;;
31262;SDS011;17892;52.080;9.006;2023-04-09T06:29:54;11.68;;;6.95;;
31262;SDS011;17892;52.080;9.006;2023-04-09T06:32:19;11.05;;;7.03;;
31262;SDS011;17892;52.080;9.006;2023-04-09T06:34:45;11.45;;;7.32;;
31262;SDS011;17892;52.080;9.006;2023-04-09T06:37:12;12.15;;;7.78;;
31262;SDS011;17892;52.080;9.006;2023-04-09T06:39:39;10.75;;;6.95;;
31262;SDS011;17892;52.080;9.006;2023-04-09T06:42:05;10.20;;;6.47;;
31262;SDS011;17892;52.080;9.006;2023-04-09T06:44:32;11.32;;;6.80;;
31262;SDS011;17892;52.080;9.006;2023-04-09T06:46:58;11.55;;;7.70;;
31262;SDS011;17892;52.080;9.006;2023-04-09T06:49:25;9.82;;;7.18;;
31262;SDS011;17892;52.080;9.006;2023-04-09T06:51:50;9.63;;;6.68;;
31262;SDS011;17892;52.080;9.006;2023-04-09T06:56:45;7.90;;;5.55;;
31262;SDS011;17892;52.080;9.006;2023-04-09T06:59:11;8.20;;;5.80;;
31262;SDS011;17892;52.080;9.006;2023-04-09T07:01:37;6.95;;;4.82;;
31262;SDS011;17892;52.080;9.006;2023-04-09T07:04:03;8.13;;;5.30;;
31262;SDS011;17892;52.080;9.006;2023-04-09T07:06:29;9.82;;;5.30;;
31262;SDS011;17892;52.080;9.006;2023-04-09T07:08:55;8.15;;;5.20;;
31262;SDS011;17892;52.080;9.006;2023-04-09T07:11:21;9.05;;;5.18;;
31262;SDS011;17892;52.080;9.006;2023-04-09T07:13:47;9.73;;;6.57;;
31262;SDS011;17892;52.080;9.006;2023-04-09T07:16:13;10.82;;;7.25;;
31262;SDS011;17892;52.080;9.006;2023-04-09T07:18:38;11.63;;;7.60;;
31262;SDS011;17892;52.080;9.006;2023-04-09T07:21:04;11.68;;;7.70;;
31262;SDS011;17892;52.080;9.006;2023-04-09T07:23:33;11.25;;;7.63;;
31262;SDS011;17892;52.080;9.006;2023-04-09T07:26:03;11.13;;;7.10;;
31262;SDS011;17892;52.080;9.006;2023-04-09T07:28:30;9.30;;;6.53;;
31262;SDS011;17892;52.080;9.006;2023-04-09T07:30:56;8.90;;;6.00;;
31262;SDS011;17892;52.080;9.006;2023-04-09T07:33:22;9.77;;;6.50;;
31262;SDS011;17892;52.080;9.006;2023-04-09T07:35:48;8.57;;;5.43;;
31262;SDS011;17892;52.080;9.006;2023-04-09T07:38:14;9.68;;;6.53;;
31262;SDS011;17892;52.080;9.006;2023-04-09T07:40:40;8.70;;;5.70;;
31262;SDS011;17892;52.080;9.006;2023-04-09T07:43:06;9.98;;;6.47;;
31262;SDS011;17892;52.080;9.006;2023-04-09T07:45:31;8.70;;;5.90;;
31262;SDS011;17892;52.080;9.006;2023-04-09T07:47:57;10.65;;;7.20;;
31262;SDS011;17892;52.080;9.006;2023-04-09T07:50:23;11.00;;;7.43;;
31262;SDS011;17892;52.080;9.006;2023-04-09T07:52:48;12.73;;;7.93;;
31262;SDS011;17892;52.080;9.006;2023-04-09T07:55:14;12.18;;;7.60;;
31262;SDS011;17892;52.080;9.006;2023-04-09T07:57:40;11.68;;;8.02;;
31262;SDS011;17892;52.080;9.006;2023-04-09T08:00:07;10.30;;;7.65;;
31262;SDS011;17892;52.080;9.006;2023-04-09T08:02:33;11.70;;;7.15;;
31262;SDS011;17892;52.080;9.006;2023-04-09T08:04:59;10.90;;;7.88;;
31262;SDS011;17892;52.080;9.006;2023-04-09T08:07:25;11.48;;;7.47;;
31262;SDS011;17892;52.080;9.006;2023-04-09T08:09:50;12.07;;;7.30;;
31262;SDS011;17892;52.080;9.006;2023-04-09T08:12:16;12.10;;;7.45;;
31262;SDS011;17892;52.080;9.006;2023-04-09T08:14:42;11.85;;;7.75;;
31262;SDS011;17892;52.080;9.006;2023-04-09T08:17:07;11.18;;;7.80;;
31262;SDS011;17892;52.080;9.006;2023-04-09T08:19:33;13.80;;;8.75;;
31262;SDS011;17892;52.080;9.006;2023-04-09T08:21:59;13.13;;;8.73;;
31262;SDS011;17892;52.080;9.006;2023-04-09T08:24:25;12.10;;;8.05;;
31262;SDS011;17892;52.080;9.006;2023-04-09T08:26:52;10.52;;;7.25;;
31262;SDS011;17892;52.080;9.006;2023-04-09T08:29:18;11.52;;;8.02;;
31262;SDS011;17892;52.080;9.006;2023-04-09T08:31:44;14.38;;;8.77;;
31262;SDS011;17892;52.080;9.006;2023-04-09T08:34:09;13.32;;;9.30;;
31262;SDS011;17892;52.080;9.006;2023-04-09T08:36:35;11.90;;;7.85;;
31262;SDS011;17892;52.080;9.006;2023-04-09T08:39:02;10.80;;;7.35;;
31262;SDS011;17892;52.080;9.006;2023-04-09T08:41:28;10.18;;;7.38;;
31262;SDS011;17892;52.080;9.006;2023-04-09T08:43:54;10.15;;;7.15;;
31262;SDS011;17892;52.080;9.006;2023-04-09T08:46:21;11.50;;;7.13;;
31262;SDS011;17892;52.080;9.006;2023-04-09T08:48:49;12.15;;;8.30;;
31262;SDS011;17892;52.080;9.006;2023-04-09T08:51:16;10.00;;;7.35;;
31262;SDS011;17892;52.080;9.006;2023-04-09T08:53:45;9.63;;;6.82;;
31262;SDS011;17892;52.080;9.006;2023-04-09T08:56:23;10.45;;;6.72;;
31262;SDS011;17892;52.080;9.006;2023-04-09T08:58:50;10.30;;;7.13;;
31262;SDS011;17892;52.080;9.006;2023-04-09T09:01:20;9.82;;;7.20;;
31262;SDS011;17892;52.080;9.006;2023-04-09T09:04:07;11.52;;;8.00;;
31262;SDS011;17892;52.080;9.006;2023-04-09T09:06:34;8.82;;;6.68;;
31262;SDS011;17892;52.080;9.006;2023-04-09T09:09:05;9.05;;;6.07;;
31262;SDS011;17892;52.080;9.006;2023-04-09T09:11:36;9.73;;;6.70;;
31262;SDS011;17892;52.080;9.006;2023-04-09T09:14:08;9.38;;;7.10;;
31262;SDS011;17892;52.080;9.006;2023-04-09T09:16:37;11.25;;;8.38;;
31262;SDS011;17892;52.080;9.006;2023-04-09T09:19:09;10.63;;;7.45;;
31262;SDS011;17892;52.080;9.006;2023-04-09T09:22:01;11.13;;;7.05;;
31262;SDS011;17892;52.080;9.006;2023-04-09T09:24:30;8.68;;;6.47;;
31262;SDS011;17892;52.080;9.006;2023-04-09T09:26:59;11.50;;;7.60;;
31262;SDS011;17892;52.080;9.006;2023-04-09T09:29:26;11.30;;;7.50;;
31262;SDS011;17892;52.080;9.006;2023-04-09T09:31:53;10.80;;;7.55;;
31262;SDS011;17892;52.080;9.006;2023-04-09T09:34:20;9.57;;;6.78;;
31262;SDS011;17892;52.080;9.006;2023-04-09T09:36:47;9.10;;;6.95;;
31262;SDS011;17892;52.080;9.006;2023-04-09T09:39:14;9.60;;;7.22;;
31262;SDS011;17892;52.080;9.006;2023-04-09T09:41:42;11.63;;;7.72;;
31262;SDS011;17892;52.080;9.006;2023-04-09T09:44:10;9.50;;;6.78;;
31262;SDS011;17892;52.080;9.006;2023-04-09T09:46:38;10.43;;;6.90;;
31262;SDS011;17892;52.080;9.006;2023-04-09T09:49:06;9.68;;;6.88;;
31262;SDS011;17892;52.080;9.006;2023-04-09T09:51:36;8.48;;;6.15;;
31262;SDS011;17892;52.080;9.006;2023-04-09T09:54:04;8.68;;;5.93;;
31262;SDS011;17892;52.080;9.006;2023-04-09T09:56:36;9.43;;;6.47;;
31262;SDS011;17892;52.080;9.006;2023-04-09T09:59:09;7.97;;;5.28;;
31262;SDS011;17892;52.080;9.006;2023-04-09T10:01:45;7.05;;;4.85;;
31262;SDS011;17892;52.080;9.006;2023-04-09T10:04:15;9.57;;;6.53;;
31262;SDS011;17892;52.080;9.006;2023-04-09T10:06:44;7.85;;;5.53;;
31262;SDS011;17892;52.080;9.006;2023-04-09T10:09:11;8.35;;;5.60;;
31262;SDS011;17892;52.080;9.006;2023-04-09T10:11:37;7.78;;;5.22;;
31262;SDS011;17892;52.080;9.006;2023-04-09T10:14:08;9.02;;;5.75;;
31262;SDS011;17892;52.080;9.006;2023-04-09T10:16:34;8.30;;;5.65;;
31262;SDS011;17892;52.080;9.006;2023-04-09T10:19:00;8.75;;;5.45;;
31262;SDS011;17892;52.080;9.006;2023-04-09T10:24:01;8.90;;;5.65;;
31262;SDS011;17892;52.080;9.006;2023-04-09T10:26:33;8.25;;;5.53;;
31262;SDS011;17892;52.080;9.006;2023-04-09T10:29:11;11.13;;;7.43;;
31262;SDS011;17892;52.080;9.006;2023-04-09T10:31:52;11.07;;;6.85;;
31262;SDS011;17892;52.080;9.006;2023-04-09T10:34:34;8.13;;;5.35;;
31262;SDS011;17892;52.080;9.006;2023-04-09T10:37:06;8.63;;;5.05;;
31262;SDS011;17892;52.080;9.006;2023-04-09T10:39:36;10.70;;;7.15;;
31262;SDS011;17892;52.080;9.006;2023-04-09T10:42:10;8.07;;;5.57;;
31262;SDS011;17892;52.080;9.006;2023-04-09T10:44:42;7.15;;;4.63;;
31262;SDS011;17892;52.080;9.006;2023-04-09T10:47:09;10.23;;;5.93;;
31262;SDS011;17892;52.080;9.006;2023-04-09T10:49:36;9.88;;;6.40;;
31262;SDS011;17892;52.080;9.006;2023-04-09T10:52:06;10.10;;;6.43;;
31262;SDS011;17892;52.080;9.006;2023-04-09T10:57:14;9.52;;;6.15;;
31262;SDS011;17892;52.080;9.006;2023-04-09T10:59:53;9.52;;;6.53;;
31262;SDS011;17892;52.080;9.006;2023-04-09T11:08:03;9.77;;;5.82;;
31262;SDS011;17892;52.080;9.006;2023-04-09T11:10:37;9.65;;;6.07;;
31262;SDS011;17892;52.080;9.006;2023-04-09T11:13:15;7.75;;;5.20;;
31262;SDS011;17892;52.080;9.006;2023-04-09T11:15:43;6.97;;;4.32;;
31262;SDS011;17892;52.080;9.006;2023-04-09T11:18:13;9.75;;;6.00;;
31262;SDS011;17892;52.080;9.006;2023-04-09T11:20:44;8.05;;;5.07;;
31262;SDS011;17892;52.080;9.006;2023-04-09T11:23:09;8.93;;;5.70;;
31262;SDS011;17892;52.080;9.006;2023-04-09T11:25:37;9.50;;;5.45;;
31262;SDS011;17892;52.080;9.006;2023-04-09T11:28:03;8.00;;;5.30;;
31262;SDS011;17892;52.080;9.006;2023-04-09T11:30:30;8.05;;;5.18;;
31262;SDS011;17892;52.080;9.006;2023-04-09T11:32:58;10.32;;;6.47;;
31262;SDS011;17892;52.080;9.006;2023-04-09T11:35:24;10.75;;;6.65;;
31262;SDS011;17892;52.080;9.006;2023-04-09T11:37:50;11.77;;;7.25;;
31262;SDS011;17892;52.080;9.006;2023-04-09T11:40:17;10.35;;;6.30;;
31262;SDS011;17892;52.080;9.006;2023-04-09T11:42:46;11.77;;;7.55;;
31262;SDS011;17892;52.080;9.006;2023-04-09T11:45:15;10.45;;;6.43;;
31262;SDS011;17892;52.080;9.006;2023-04-09T11:47:42;10.68;;;6.03;;
31262;SDS011;17892;52.080;9.006;2023-04-09T11:50:10;10.93;;;7.18;;
31262;SDS011;17892;52.080;9.006;2023-04-09T11:52:37;12.27;;;8.05;;
31262;SDS011;17892;52.080;9.006;2023-04-09T11:55:05;9.07;;;5.50;;
31262;SDS011;17892;52.080;9.006;2023-04-09T11:57:43;11.70;;;7.05;;
31262;SDS011;17892;52.080;9.006;2023-04-09T12:00:11;11.05;;;6.55;;
31262;SDS011;17892;52.080;9.006;2023-04-09T12:02:42;13.50;;;7.40;;
31262;SDS011;17892;52.080;9.006;2023-04-09T12:05:12;10.55;;;6.20;;
31262;SDS011;17892;52.080;9.006;2023-04-09T12:07:49;10.63;;;6.30;;
31262;SDS011;17892;52.080;9.006;2023-04-09T12:10:24;9.60;;;5.85;;
31262;SDS011;17892;52.080;9.006;2023-04-09T12:13:01;11.30;;;7.03;;
31262;SDS011;17892;52.080;9.006;2023-04-09T12:15:35;10.55;;;6.70;;
31262;SDS011;17892;52.080;9.006;2023-04-09T12:18:02;10.60;;;6.07;;
31262;SDS011;17892;52.080;9.006;2023-04-09T12:20:39;9.32;;;6.00;;
31262;SDS011;17892;52.080;9.006;2023-04-09T12:23:10;11.32;;;7.32;;
31262;SDS011;17892;52.080;9.006;2023-04-09T12:25:37;10.85;;;6.43;;
31262;SDS011;17892;52.080;9.006;2023-04-09T12:28:13;8.93;;;5.60;;
31262;SDS011;17892;52.080;9.006;2023-04-09T12:30:42;9.88;;;5.65;;
31262;SDS011;17892;52.080;9.006;2023-04-09T12:33:08;10.32;;;6.47;;
31262;SDS011;17892;52.080;9.006;2023-04-09T12:35:34;11.68;;;7.15;;
31262;SDS011;17892;52.080;9.006;2023-04-09T12:38:01;13.20;;;6.90;;
31262;SDS011;17892;52.080;9.006;2023-04-09T12:40:29;10.90;;;6.15;;
31262;SDS011;17892;52.080;9.006;2023-04-09T12:42:54;11.35;;;7.30;;
31262;SDS011;17892;52.080;9.006;2023-04-09T12:45:20;12.85;;;7.30;;
31262;SDS011;17892;52.080;9.006;2023-04-09T12:47:46;11.68;;;6.80;;
31262;SDS011;17892;52.080;9.006;2023-04-09T12:50:13;11.60;;;7.32;;
31262;SDS011;17892;52.080;9.006;2023-04-09T12:52:40;9.75;;;6.03;;
31262;SDS011;17892;52.080;9.006;2023-04-09T12:55:06;9.40;;;5.95;;
31262;SDS011;17892;52.080;9.006;2023-04-09T12:57:33;8.57;;;5.30;;
31262;SDS011;17892;52.080;9.006;2023-04-09T13:00:01;8.27;;;4.97;;
31262;SDS011;17892;52.080;9.006;2023-04-09T13:02:28;7.47;;;4.32;;
31262;SDS011;17892;52.080;9.006;2023-04-09T13:04:54;8.45;;;5.07;;
31262;SDS011;17892;52.080;9.006;2023-04-09T13:07:20;9.55;;;5.95;;
31262;SDS011;17892;52.080;9.006;2023-04-09T13:09:46;10.75;;;6.28;;
31262;SDS011;17892;52.080;9.006;2023-04-09T13:12:16;10.15;;;5.88;;
31262;SDS011;17892;52.080;9.006;2023-04-09T13:14:43;10.55;;;6.32;;
31262;SDS011;17892;52.080;9.006;2023-04-09T13:17:10;9.23;;;5.55;;
31262;SDS011;17892;52.080;9.006;2023-04-09T13:19:36;9.07;;;5.32;;
31262;SDS011;17892;52.080;9.006;2023-04-09T13:22:01;9.65;;;5.63;;
31262;SDS011;17892;52.080;9.006;2023-04-09T13:24:27;6.80;;;4.32;;
31262;SDS011;17892;52.080;9.006;2023-04-09T13:26:53;9.40;;;5.88;;
31262;SDS011;17892;52.080;9.006;2023-04-09T13:29:19;8.38;;;4.93;;
31262;SDS011;17892;52.080;9.006;2023-04-09T13:31:45;8.13;;;4.90;;
31262;SDS011;17892;52.080;9.006;2023-04-09T13:34:10;9.77;;;5.93;;
31262;SDS011;17892;52.080;9.006;2023-04-09T13:36:36;9.93;;;5.80;;
31262;SDS011;17892;52.080;9.006;2023-04-09T13:39:02;10.38;;;5.93;;
31262;SDS011;17892;52.080;9.006;2023-04-09T13:41:34;11.55;;;6.00;;
31262;SDS011;17892;52.080;9.006;2023-04-09T13:44:00;10.00;;;6.15;;
31262;SDS011;17892;52.080;9.006;2023-04-09T13:46:26;9.35;;;6.05;;
31262;SDS011;17892;52.080;9.006;2023-04-09T13:48:52;8.75;;;5.55;;
31262;SDS011;17892;52.080;9.006;2023-04-09T13:51:19;8.00;;;4.78;;
31262;SDS011;17892;52.080;9.006;2023-04-09T13:53:46;9.10;;;5.63;;
31262;SDS011;17892;52.080;9.006;2023-04-09T13:56:13;7.57;;;4.60;;
31262;SDS011;17892;52.080;9.006;2023-04-09T13:58:39;7.25;;;4.72;;
31262;SDS011;17892;52.080;9.006;2023-04-09T14:01:05;7.03;;;4.43;;
31262;SDS011;17892;52.080;9.006;2023-04-09T14:03:31;7.85;;;4.60;;
31262;SDS011;17892;52.080;9.006;2023-04-09T14:05:57;7.22;;;4.97;;
31262;SDS011;17892;52.080;9.006;2023-04-09T14:08:23;7.00;;;4.45;;
31262;SDS011;17892;52.080;9.006;2023-04-09T14:10:49;6.28;;;3.88;;
31262;SDS011;17892;52.080;9.006;2023-04-09T14:13:15;6.68;;;4.53;;
31262;SDS011;17892;52.080;9.006;2023-04-09T14:15:41;6.68;;;4.25;;
31262;SDS011;17892;52.080;9.006;2023-04-09T14:18:09;6.97;;;4.70;;
31262;SDS011;17892;52.080;9.006;2023-04-09T14:20:35;7.90;;;5.03;;
31262;SDS011;17892;52.080;9.006;2023-04-09T14:23:02;7.38;;;4.85;;
31262;SDS011;17892;52.080;9.006;2023-04-09T14:25:28;6.22;;;3.90;;
31262;SDS011;17892;52.080;9.006;2023-04-09T14:27:53;5.68;;;4.00;;
31262;SDS011;17892;52.080;9.006;2023-04-09T14:30:19;6.43;;;3.92;;
31262;SDS011;17892;52.080;9.006;2023-04-09T14:32:46;7.05;;;4.18;;
31262;SDS011;17892;52.080;9.006;2023-04-09T14:35:11;6.45;;;3.95;;
31262;SDS011;17892;52.080;9.006;2023-04-09T14:37:37;8.30;;;5.47;;
31262;SDS011;17892;52.080;9.006;2023-04-09T14:40:05;8.05;;;4.53;;
31262;SDS011;17892;52.080;9.006;2023-04-09T14:42:34;8.35;;;6.03;;
31262;SDS011;17892;52.080;9.006;2023-04-09T14:45:00;9.55;;;5.70;;
31262;SDS011;17892;52.080;9.006;2023-04-09T14:47:26;8.88;;;5.75;;
31262;SDS011;17892;52.080;9.006;2023-04-09T14:49:52;11.48;;;6.55;;
31262;SDS011;17892;52.080;9.006;2023-04-09T14:52:18;9.13;;;5.25;;
31262;SDS011;17892;52.080;9.006;2023-04-09T14:54:44;7.65;;;4.45;;
31262;SDS011;17892;52.080;9.006;2023-04-09T14:57:10;8.18;;;4.78;;
31262;SDS011;17892;52.080;9.006;2023-04-09T14:59:36;8.95;;;5.60;;
31262;SDS011;17892;52.080;9.006;2023-04-09T15:02:01;9.02;;;5.32;;
31262;SDS011;17892;52.080;9.006;2023-04-09T15:04:27;7.28;;;4.97;;